createdAt,value
2022-09-16T00:00:13.878Z,101218.16
2022-09-16T00:03:59.678Z,101214.26
2022-09-16T00:07:17.984Z,101209.98
2022-09-16T00:10:32.885Z,101215.45
2022-09-16T00:13:29.707Z,101213.27
2022-09-16T00:17:05.139Z,101210.59
2022-09-16T00:20:06.077Z,101207.84
2022-09-16T00:23:23.505Z,101209.41
2022-09-16T00:26:54.220Z,101211.91
2022-09-16T00:29:51.118Z,101211.06
2022-09-16T00:33:07.476Z,101211.63
2022-09-16T00:36:03.363Z,101212.98
2022-09-16T00:39:19.400Z,101210.90
2022-09-16T00:42:19.123Z,101213.00
2022-09-16T00:45:33.112Z,101212.22
2022-09-16T00:48:47.768Z,101213.94
2022-09-16T00:52:14.388Z,101217.33
2022-09-16T00:55:17.621Z,101221.67
2022-09-16T00:58:30.538Z,101224.54
2022-09-16T01:01:50.241Z,101227.02
2022-09-16T01:05:11.000Z,101228.52
2022-09-16T01:08:18.927Z,101224.56
2022-09-16T01:11:45.485Z,101225.98
2022-09-16T01:15:17.216Z,101224.77
2022-09-16T01:19:02.530Z,101222.75
2022-09-16T01:22:24.525Z,101227.68
2022-09-16T01:26:05.310Z,101226.84
2022-09-16T01:29:19.286Z,101234.09
2022-09-16T01:32:55.519Z,101233.15
2022-09-16T01:36:25.846Z,101233.55
2022-09-16T01:39:33.561Z,101233.02
2022-09-16T01:43:29.492Z,101236.52
2022-09-16T01:46:29.043Z,101240.85
2022-09-16T01:49:38.232Z,101244.77
2022-09-16T01:52:58.593Z,101246.02
2022-09-16T01:56:12.078Z,101241.74
2022-09-16T01:59:34.648Z,101247.10
2022-09-16T02:03:03.769Z,101247.13
2022-09-16T02:06:00.646Z,101249.95
2022-09-16T02:09:13.695Z,101254.17
2022-09-16T02:12:33.171Z,101256.98
2022-09-16T02:16:00.496Z,101258.42
2022-09-16T02:19:28.505Z,101256.55
2022-09-16T02:22:59.259Z,101254.69
2022-09-16T02:26:26.751Z,101251.67
2022-09-16T02:29:34.946Z,101255.04
2022-09-16T02:33:00.774Z,101259.03
2022-09-16T02:36:28.134Z,101256.98
2022-09-16T02:39:55.689Z,101263.81
2022-09-16T02:43:03.474Z,101264.31
2022-09-16T02:46:37.721Z,101265.10
2022-09-16T02:50:02.525Z,101268.77
2022-09-16T02:53:54.092Z,101271.77
2022-09-16T02:57:11.986Z,101279.02
2022-09-16T03:00:05.172Z,101282.30
2022-09-16T03:03:16.727Z,101288.71
2022-09-16T03:06:40.304Z,101293.36
2022-09-16T03:09:57.290Z,101292.63
2022-09-16T03:13:24.983Z,101297.35
2022-09-16T03:16:58.185Z,101296.45
2022-09-16T03:20:34.169Z,101302.98
2022-09-16T03:24:15.955Z,101306.50
2022-09-16T03:27:59.565Z,101315.21
2022-09-16T03:31:26.786Z,101316.21
2022-09-16T03:34:44.826Z,101321.23
2022-09-16T03:38:05.393Z,101327.78
2022-09-16T03:41:32.801Z,101330.83
2022-09-16T03:44:59.571Z,101334.19
2022-09-16T03:48:29.625Z,101334.50
2022-09-16T03:51:22.324Z,101340.29
2022-09-16T03:54:48.761Z,101341.46
2022-09-16T03:58:05.971Z,101350.12
2022-09-16T04:00:54.500Z,101355.04
2022-09-16T04:04:12.747Z,101358.77
2022-09-16T04:07:20.160Z,101359.80
2022-09-16T04:10:19.903Z,101365.71
2022-09-16T04:13:47.457Z,101367.85
2022-09-16T04:17:14.552Z,101368.33
2022-09-16T04:20:41.289Z,101369.70
2022-09-16T04:24:12.913Z,101373.45
2022-09-16T04:27:30.735Z,101378.52
2022-09-16T04:30:59.665Z,101382.36
2022-09-16T04:34:26.463Z,101381.14
2022-09-16T04:37:42.478Z,101376.69
2022-09-16T04:41:00.362Z,101374.65
2022-09-16T04:44:07.285Z,101375.73
2022-09-16T04:47:30.959Z,101376.08
2022-09-16T04:50:50.844Z,101377.25
2022-09-16T04:53:50.054Z,101378.98
2022-09-16T04:57:08.803Z,101377.07
2022-09-16T05:00:15.585Z,101375.23
2022-09-16T05:03:42.807Z,101369.70
2022-09-16T05:06:56.308Z,101373.34
2022-09-16T05:09:44.253Z,101371.48
2022-09-16T05:13:01.445Z,101373.17
2022-09-16T05:16:09.823Z,101377.27
2022-09-16T05:19:37.112Z,101374.30
2022-09-16T05:22:56.898Z,101379.31
2022-09-16T05:26:24.247Z,101379.20
2022-09-16T05:29:34.756Z,101383.30
2022-09-16T05:32:50.603Z,101379.77
2022-09-16T05:36:13.235Z,101378.23
2022-09-16T05:39:30.847Z,101376.33
2022-09-16T05:42:51.299Z,101373.27
2022-09-16T05:45:48.264Z,101372.83
2022-09-16T05:49:08.355Z,101375.48
2022-09-16T05:52:12.424Z,101372.17
2022-09-16T05:55:00.646Z,101373.14
2022-09-16T05:58:27.870Z,101371.02
2022-09-16T06:00:44.472Z,101367.32
2022-09-16T06:03:51.266Z,101369.80
2022-09-16T06:07:15.649Z,101371.74
2022-09-16T06:10:32.862Z,101370.17
2022-09-16T06:14:01.567Z,101372.94
2022-09-16T06:17:18.891Z,101377.16
2022-09-16T06:20:40.573Z,101379.27
2022-09-16T06:24:09.539Z,101378.47
2022-09-16T06:27:35.969Z,101375.23
2022-09-16T06:31:03.084Z,101379.99
2022-09-16T06:34:22.978Z,101377.01
2022-09-16T06:37:42.717Z,101377.32
2022-09-16T06:41:09.396Z,101381.55
2022-09-16T06:44:35.863Z,101386.80
2022-09-16T06:47:22.669Z,101391.25
2022-09-16T06:50:38.361Z,101385.77
2022-09-16T06:53:57.450Z,101388.55
2022-09-16T06:57:24.799Z,101385.08
2022-09-16T07:00:43.515Z,101387.38
2022-09-16T07:03:50.657Z,101392.15
2022-09-16T07:07:19.128Z,101393.73
2022-09-16T07:10:46.486Z,101391.92
2022-09-16T07:14:06.917Z,101394.52
2022-09-16T07:17:14.070Z,101393.62
2022-09-16T07:20:35.197Z,101394.10
2022-09-16T07:24:03.242Z,101393.55
2022-09-16T07:27:29.932Z,101395.43
2022-09-16T07:30:37.082Z,101404.45
2022-09-16T07:34:04.912Z,101404.08
2022-09-16T07:37:23.321Z,101407.77
2022-09-16T07:40:44.052Z,101410.08
2022-09-16T07:44:13.142Z,101410.29
2022-09-16T07:47:39.485Z,101416.29
2022-09-16T07:51:05.938Z,101416.51
2022-09-16T07:54:20.955Z,101420.62
2022-09-16T07:57:30.633Z,101430.19
2022-09-16T08:00:30.030Z,101431.50
2022-09-16T08:03:45.719Z,101431.09
2022-09-16T08:07:03.892Z,101435.91
2022-09-16T08:10:21.123Z,101430.40
2022-09-16T08:13:51.195Z,101431.12
2022-09-16T08:17:09.968Z,101425.83
2022-09-16T08:20:26.565Z,101432.93
2022-09-16T08:23:46.003Z,101428.65
2022-09-16T08:26:33.467Z,101436.15
2022-09-16T08:29:43.006Z,101435.89
2022-09-16T08:33:09.374Z,101439.04
2022-09-16T08:36:27.525Z,101441.92
2022-09-16T08:39:54.938Z,101445.41
2022-09-16T08:43:21.640Z,101446.02
2022-09-16T08:46:31.680Z,101444.35
2022-09-16T08:50:07.435Z,101446.95
2022-09-16T08:53:26.906Z,101446.02
2022-09-16T08:56:44.269Z,101446.19
2022-09-16T09:00:11.448Z,101447.90
2022-09-16T09:03:49.488Z,101452.52
2022-09-16T09:07:23.388Z,101454.73
2022-09-16T09:10:56.208Z,101453.59
2022-09-16T09:14:21.267Z,101460.64
2022-09-16T09:17:51.700Z,101457.62
2022-09-16T09:21:35.248Z,101453.79
2022-09-16T09:25:14.605Z,101456.20
2022-09-16T09:28:40.737Z,101459.88
2022-09-16T09:32:04.435Z,101463.39
2022-09-16T09:35:37.609Z,101469.09
2022-09-16T09:39:13.287Z,101475.04
2022-09-16T09:42:31.070Z,101477.35
2022-09-16T09:45:54.480Z,101476.61
2022-09-16T09:49:02.437Z,101473.44
2022-09-16T09:52:35.064Z,101470.65
2022-09-16T09:56:01.859Z,101468.95
2022-09-16T09:59:37.922Z,101472.39
2022-09-16T10:03:05.310Z,101463.98
2022-09-16T10:06:24.958Z,101460.45
2022-09-16T10:09:52.127Z,101465.98
2022-09-16T10:12:53.435Z,101464.27
2022-09-16T10:16:23.076Z,101463.52
2022-09-16T10:19:40.156Z,101469.17
2022-09-16T10:22:56.421Z,101459.41
2022-09-16T10:26:24.772Z,101469.03
2022-09-16T10:29:45.303Z,101480.29
2022-09-16T10:32:54.284Z,101478.84
2022-09-16T10:36:06.449Z,101482.14
2022-09-16T10:39:41.939Z,101481.73
2022-09-16T10:43:09.866Z,101483.52
2022-09-16T10:46:36.389Z,101486.52
2022-09-16T10:49:52.989Z,101489.68
2022-09-16T10:57:30.855Z,101486.63
2022-09-16T11:00:45.972Z,101487.31
2022-09-16T11:03:56.691Z,101487.21
2022-09-16T11:07:44.033Z,101480.31
2022-09-16T11:11:20.158Z,101478.92
2022-09-16T11:15:10.476Z,101477.30
2022-09-16T11:18:59.454Z,101480.43
2022-09-16T11:22:25.666Z,101472.55
2022-09-16T11:26:00.691Z,101474.17
2022-09-16T11:29:27.852Z,101478.59
2022-09-16T11:32:50.690Z,101483.48
2022-09-16T11:36:42.196Z,101487.67
2022-09-16T11:40:09.266Z,101487.39
2022-09-16T11:43:29.681Z,101487.57
2022-09-16T11:46:49.690Z,101487.77
2022-09-16T11:50:21.290Z,101487.88
2022-09-16T11:54:00.367Z,101487.44
2022-09-16T11:57:30.086Z,101492.02
2022-09-16T12:01:01.240Z,101501.97
2022-09-16T12:04:33.701Z,101505.12
2022-09-16T12:08:13.777Z,101508.73
2022-09-16T12:11:37.731Z,101513.08
2022-09-16T12:14:58.571Z,101510.23
2022-09-16T12:18:29.832Z,101509.12
2022-09-16T12:21:59.985Z,101511.21
2022-09-16T12:25:27.471Z,101507.73
2022-09-16T12:28:55.247Z,101506.91
2022-09-16T12:32:19.506Z,101505.47
2022-09-16T12:35:26.648Z,101506.16
2022-09-16T12:38:45.325Z,101499.89
2022-09-16T12:42:23.782Z,101506.53
2022-09-16T12:45:54.831Z,101505.52
2022-09-16T12:49:11.708Z,101504.40
2022-09-16T12:52:27.028Z,101503.61
2022-09-16T12:56:03.834Z,101501.80
2022-09-16T12:59:27.569Z,101499.66
2022-09-16T13:03:00.426Z,101503.57
2022-09-16T13:06:29.356Z,101504.10
2022-09-16T13:09:55.565Z,101504.54
2022-09-16T13:13:11.826Z,101504.67
2022-09-16T13:16:29.970Z,101510.31
2022-09-16T13:20:07.667Z,101513.83
2022-09-16T13:23:49.335Z,101516.06
2022-09-16T13:27:13.299Z,101521.02
2022-09-16T13:30:52.209Z,101525.07
2022-09-16T13:34:22.137Z,101527.59
2022-09-16T13:37:57.146Z,101528.60
2022-09-16T13:41:39.109Z,101533.89
2022-09-16T13:45:12.854Z,101539.39
2022-09-16T13:48:22.342Z,101537.55
2022-09-16T13:51:40.100Z,101536.39
2022-09-16T13:55:31.532Z,101539.89
2022-09-16T13:59:07.631Z,101542.95
2022-09-16T14:02:28.636Z,101548.45
2022-09-16T14:05:44.131Z,101547.32
2022-09-16T14:08:57.627Z,101552.58
2022-09-16T14:12:31.990Z,101550.49
2022-09-16T14:15:53.352Z,101551.55
2022-09-16T14:19:19.980Z,101554.61
2022-09-16T14:22:46.597Z,101555.80
2022-09-16T14:26:30.850Z,101560.71
2022-09-16T14:29:39.664Z,101563.77
2022-09-16T14:32:54.851Z,101566.92
2022-09-16T14:36:11.179Z,101569.81
2022-09-16T14:39:26.309Z,101573.64
2022-09-16T14:42:43.763Z,101576.23
2022-09-16T14:46:10.519Z,101579.05
2022-09-16T14:49:37.411Z,101577.58
2022-09-16T14:53:02.261Z,101578.38
2022-09-16T14:56:29.032Z,101588.44
2022-09-16T14:59:48.126Z,101586.91
2022-09-16T15:03:18.191Z,101588.25
2022-09-16T15:06:44.025Z,101589.15
2022-09-16T15:10:10.447Z,101589.21
2022-09-16T15:13:41.723Z,101596.95
2022-09-16T15:17:00.431Z,101601.92
2022-09-16T15:20:27.390Z,101607.40
2022-09-16T15:23:57.358Z,101602.59
2022-09-16T15:27:22.892Z,101607.62
2022-09-16T15:30:50.594Z,101608.73
2022-09-16T15:34:29.678Z,101604.93
2022-09-16T15:38:16.601Z,101604.91
2022-09-16T15:41:44.708Z,101605.96
2022-09-16T15:45:11.730Z,101608.02
2022-09-16T15:48:38.433Z,101612.08
2022-09-16T15:52:08.213Z,101609.98
2022-09-16T15:55:26.444Z,101611.55
2022-09-16T15:58:39.679Z,101614.81
2022-09-16T16:02:02.756Z,101615.27
2022-09-16T16:05:33.087Z,101619.16
2022-09-16T16:09:18.525Z,101622.42
2022-09-16T16:12:46.837Z,101611.14
2022-09-16T16:16:18.611Z,101609.84
2022-09-16T16:19:54.195Z,101607.98
2022-09-16T16:23:04.166Z,101609.48
2022-09-16T16:26:30.856Z,101612.80
2022-09-16T16:29:58.164Z,101613.27
2022-09-16T16:33:24.687Z,101614.27
2022-09-16T16:36:43.208Z,101612.16
2022-09-16T16:40:09.647Z,101610.14
2022-09-16T16:43:26.714Z,101608.62
2022-09-16T16:46:55.983Z,101612.04
2022-09-16T16:50:22.514Z,101617.89
2022-09-16T16:53:50.193Z,101623.66
2022-09-16T16:57:17.281Z,101618.82
2022-09-16T17:00:44.923Z,101615.98
2022-09-16T17:04:12.418Z,101611.84
2022-09-16T17:07:40.727Z,101613.83
2022-09-16T17:10:57.892Z,101611.83
2022-09-16T17:14:06.937Z,101613.02
2022-09-16T17:17:34.683Z,101609.63
2022-09-16T17:20:51.525Z,101611.33
2022-09-16T17:24:08.931Z,101609.73
2022-09-16T17:27:25.730Z,101612.05
2022-09-16T17:30:42.611Z,101609.13
2022-09-16T17:34:09.723Z,101611.33
2022-09-16T17:38:06.205Z,101606.42
2022-09-16T17:41:34.876Z,101605.65
2022-09-16T17:45:02.193Z,101608.36
2022-09-16T17:48:19.454Z,101609.29
2022-09-16T17:51:35.743Z,101608.95
2022-09-16T17:54:36.626Z,101605.27
2022-09-16T17:58:03.780Z,101602.09
2022-09-16T18:01:32.057Z,101600.33
2022-09-16T18:04:50.718Z,101599.77
2022-09-16T18:08:18.672Z,101595.88
2022-09-16T18:11:46.325Z,101597.41
2022-09-16T18:14:54.684Z,101593.91
2022-09-16T18:18:12.582Z,101591.08
2022-09-16T18:21:13.164Z,101589.58
2022-09-16T18:24:13.760Z,101588.08
2022-09-16T18:27:43.968Z,101587.45
2022-09-16T18:31:11.838Z,101584.52
2022-09-16T18:33:53.762Z,101584.86
2022-09-16T18:37:19.909Z,101584.61
2022-09-16T18:40:40.407Z,101580.97
2022-09-16T18:43:50.617Z,101579.68
2022-09-16T18:47:10.027Z,101576.34
2022-09-16T18:50:18.854Z,101574.17
2022-09-16T18:53:35.600Z,101572.26
2022-09-16T18:56:54.044Z,101571.76
2022-09-16T19:00:22.284Z,101569.29
2022-09-16T19:03:38.012Z,101570.72
2022-09-16T19:07:05.564Z,101568.27
2022-09-16T19:10:21.626Z,101564.37
2022-09-16T19:13:48.391Z,101564.92
2022-09-16T19:17:16.743Z,101565.48
2022-09-16T19:20:05.233Z,101565.89
2022-09-16T19:22:55.315Z,101566.70
2022-09-16T19:26:23.813Z,101565.98
2022-09-16T19:29:50.863Z,101566.06
2022-09-16T19:33:19.768Z,101565.17
2022-09-16T19:36:52.994Z,101561.48
2022-09-16T19:39:30.338Z,101564.40
2022-09-16T19:42:58.263Z,101557.95
2022-09-16T19:46:25.009Z,101554.56
2022-09-16T19:49:45.134Z,101547.46
2022-09-16T19:53:08.544Z,101542.67
2022-09-16T19:56:39.092Z,101537.47
2022-09-16T20:00:06.235Z,101536.59
2022-09-16T20:03:33.689Z,101529.91
2022-09-16T20:07:05.139Z,101530.83
2022-09-16T20:10:31.972Z,101530.74
2022-09-16T20:13:59.934Z,101527.52
2022-09-16T20:17:25.688Z,101525.31
2022-09-16T20:20:53.063Z,101523.89
2022-09-16T20:24:21.669Z,101523.78
2022-09-16T20:27:49.925Z,101520.27
2022-09-16T20:31:17.672Z,101520.29
2022-09-16T20:34:27.744Z,101512.95
2022-09-16T20:37:48.805Z,101511.54
2022-09-16T20:41:16.033Z,101507.00
2022-09-16T20:44:46.438Z,101500.65
2022-09-16T20:48:10.326Z,101496.82
2022-09-16T20:51:41.530Z,101494.06
2022-09-16T20:55:08.641Z,101489.96
2022-09-16T20:58:18.426Z,101491.65
2022-09-16T21:01:48.892Z,101490.52
2022-09-16T21:05:06.776Z,101483.83
2022-09-16T21:08:34.136Z,101483.20
2022-09-16T21:12:01.086Z,101478.98
2022-09-16T21:15:29.580Z,101474.57
2022-09-16T21:18:46.589Z,101473.52
2022-09-16T21:21:57.866Z,101467.35
2022-09-16T21:25:25.057Z,101465.81
2022-09-16T21:28:32.432Z,101461.94
2022-09-16T21:31:57.279Z,101458.36
2022-09-16T21:35:21.312Z,101452.88
2022-09-16T21:38:48.450Z,101450.84
2022-09-16T21:41:19.928Z,101446.42
2022-09-16T21:44:46.580Z,101445.85
2022-09-16T21:47:53.027Z,101446.52
2022-09-16T21:51:03.512Z,101448.80
2022-09-16T21:54:23.518Z,101444.42
2022-09-16T21:57:51.492Z,101441.15
2022-09-16T22:01:18.717Z,101437.11
2022-09-16T22:04:46.410Z,101437.36
2022-09-16T22:08:13.537Z,101435.83
2022-09-16T22:11:46.319Z,101432.83
2022-09-16T22:14:52.826Z,101426.42
2022-09-16T22:18:02.672Z,101426.95
2022-09-16T22:21:22.990Z,101426.95
2022-09-16T22:24:51.294Z,101423.34
2022-09-16T22:28:18.008Z,101423.92
2022-09-16T22:31:17.468Z,101427.56
2022-09-16T22:34:02.398Z,101424.20
2022-09-16T22:37:18.980Z,101419.50
2022-09-16T22:40:45.743Z,101419.02
2022-09-16T22:43:55.488Z,101410.17
2022-09-16T22:47:25.092Z,101410.14
2022-09-16T22:50:46.599Z,101401.18
2022-09-16T22:54:13.497Z,101394.98
2022-09-16T22:57:39.989Z,101396.84
2022-09-16T23:01:05.901Z,101393.65
2022-09-16T23:04:23.559Z,101396.53
2022-09-16T23:07:49.984Z,101391.39
2022-09-16T23:11:16.949Z,101393.61
2022-09-16T23:14:43.411Z,101392.07
2022-09-16T23:17:50.340Z,101390.58
2022-09-16T23:21:17.545Z,101389.36
2022-09-16T23:24:44.278Z,101388.73
2022-09-16T23:27:57.130Z,101388.34
2022-09-16T23:31:24.328Z,101382.61
2022-09-16T23:35:00.539Z,101381.45
2022-09-16T23:38:21.479Z,101375.67
2022-09-16T23:41:48.232Z,101372.00
2022-09-16T23:45:15.262Z,101368.27
2022-09-16T23:48:24.837Z,101365.59
2022-09-16T23:51:51.562Z,101364.81
2022-09-16T23:55:11.989Z,101358.14
2022-09-16T23:58:32.481Z,101358.91
